Home   Weather   Cyprus   Nicosia   Past weeks
Flag for Cyprus

Past Weather in Nicosia, Cyprus — Yesterday and Last 2 Weeks

Currently: 70 °F. Clear. (Weather station: Ercan, Cyprus). See more current weather

Past Weather in Nicosia — Graph

°F

Nicosia Temperature Yesterday

Maximum temperature yesterday: 93 °F (at 3:50 pm)
Minimum temperature yesterday: 66 °F (at 3:20 am)
Average temperature yesterday: 79 °F

High & Low Weather Summary for the Past Weeks

 TemperatureHumidityPressure
High93 °F (Jun 7, 1:50 pm)88% (Jun 4, 3:50 am)29.98 "Hg (Jun 4, 3:50 am)
Low63 °F (Jun 4, 4:50 am)14% (Jun 7, 1:50 pm)29.74 "Hg (Jun 10, 3:50 am)
Average77 °F50%29.86 "Hg
* Reported Jun 4 12:20 am — Jun 19 12:50 am, Nicosia. Weather by CustomWeather, © 2021

Note: Actual official high and low records may vary slightly from our data, if they occured in-between our weather recording intervals... More about our weather records

Nicosia Weather History for the Previous 24 Hours

Scroll right to see more
 ConditionsComfort  
Time TempWeatherWind HumidityBarometerVisibility
12:50 am
Sat, Jun 19
72 °FClear.14 mph65%29.83 "Hg10 mi
12:20 am72 °FClear.15 mph65%29.86 "Hg10 mi
11:50 pm
Fri, Jun 18
72 °FClear.15 mph65%29.86 "Hg10 mi
11:20 pm72 °FClear.15 mph65%29.86 "Hg10 mi
10:50 pm73 °FClear.16 mph65%29.86 "Hg10 mi
10:20 pm73 °FClear.16 mph65%29.86 "Hg10 mi
9:50 pm75 °FClear.16 mph61%29.86 "Hg10 mi
9:20 pm75 °FClear.14 mph65%29.86 "Hg10 mi
8:20 pm79 °FPassing clouds.17 mph51%29.83 "HgN/A
7:50 pm81 °FScattered clouds.16 mph42%29.83 "HgN/A
7:20 pm84 °FScattered clouds.17 mph35%29.83 "HgN/A
6:50 pm86 °FScattered clouds.16 mph31%29.83 "HgN/A
6:20 pm88 °FScattered clouds.16 mph29%29.83 "HgN/A
5:50 pm90 °FScattered clouds.20 mph29%29.83 "HgN/A
5:20 pm91 °FScattered clouds.18 mph28%29.83 "HgN/A
4:50 pm91 °FScattered clouds.18 mph32%29.83 "HgN/A
4:20 pm90 °FScattered clouds.10 mph26%29.83 "HgN/A
3:50 pm93 °FScattered clouds.14 mph23%29.83 "HgN/A
2:50 pm90 °FScattered clouds.17 mph26%29.86 "HgN/A
2:20 pm91 °FScattered clouds.10 mph23%29.86 "HgN/A
1:50 pm91 °FSunny.14 mph23%29.86 "Hg10 mi
1:20 pm91 °FSunny.16 mph23%29.86 "Hg10 mi
12:50 pm91 °FSunny.3 mph21%29.89 "Hg10 mi
12:20 pm90 °FSunny.6 mph24%29.89 "Hg10 mi
11:50 am88 °FPassing clouds.7 mph25%29.89 "HgN/A
11:20 am88 °FSunny.6 mph25%29.89 "Hg10 mi
10:50 am86 °FSunny.6 mph27%29.92 "Hg10 mi
10:20 am84 °FSunny.No wind25%29.92 "Hg10 mi
9:50 am84 °FSunny.No wind25%29.92 "Hg10 mi
8:50 am81 °FSunny.7 mph28%29.92 "Hg10 mi
8:20 am79 °FSunny.9 mph34%29.92 "Hg10 mi
7:50 am75 °FPassing clouds.6 mph54%29.92 "HgN/A
7:20 am70 °FSunny.7 mph73%29.92 "Hg10 mi
6:50 am68 °FSunny.7 mph73%29.92 "Hg10 mi
6:20 am66 °FSunny.8 mph78%29.92 "Hg10 mi
5:50 am66 °FSunny.10 mph78%29.92 "Hg10 mi
5:20 am66 °FClear.12 mph83%29.92 "Hg10 mi
4:50 am68 °FClear.12 mph78%29.92 "Hg10 mi
3:50 am66 °FClear.12 mph83%29.92 "Hg10 mi
3:20 am66 °FClear.10 mph83%29.92 "Hg10 mi
2:50 am68 °FClear.13 mph78%29.92 "Hg10 mi
2:20 am68 °FClear.13 mph83%29.95 "Hg10 mi
Weather by CustomWeather, © 2021

See weather overview